L'Atalante — FNCM — position and weather

sailwx.info

Track history (hours):
 
Tides and Currents Weather Stations Pressure Air Temp Water Temp Dewpoint Dewpoint Depression Visibility Wind Speed Wind Dir Waves Ship Positions

Oceanographic research ship L'Atalante (France)

Detailed information on ship capabilities available from University of Delaware's Ocean Information Center and ARCUS's ALIAS (Arctic Logistics Information and Support) project.

Last reported at 2018-Nov-09 04:39 UTC. Time now 2018-Dec-10 20:04 UTC.
Position N 38°34' E 015°22'.
Warning: this ship's position is 31 days out of date.

Length 85 m; beam 16 m.

Type: Other ship. MMSI: 227222000.

Date/timePositionNaut miles runAvg speedWind from/ knotsBaromVisibWave heightAir tempDewpointWater temp
2018-Nov-09 04:39N 38°34' E 015°22'312.1
2018-Nov-09 04:25N 38°32' E 015°24'411.7
2018-Nov-09 04:02N 38°29' E 015°28'811.5
2018-Nov-09 03:23N 38°24' E 015°35'411.9
2018-Nov-09 03:02N 38°21' E 015°39'8 9.0
2018-Nov-09 02:08N 38°13' E 015°37'311.5
2018-Nov-09 01:54N 38°10' E 015°37'5 9.6
2018-Nov-09 01:25N 38°06' E 015°36'4 9.6
2018-Nov-09 01:01N 38°02' E 015°36'511.5
2018-Nov-09 00:32N 37°57' E 015°37'611.5
2018-Nov-09 00:02N 37°54' E 015°43'611.8
2018-Nov-08 23:30N 37°51' E 015°51'511.7
2018-Nov-08 23:02N 37°49' E 015°57'  
Track history (hours):
 
Tides and Currents Weather Stations Pressure Air Temp Water Temp Dewpoint Dewpoint Depression Visibility Wind Speed Wind Dir Waves Ship Positions

Oceanographic research ship L'Atalante (France)

Detailed information on ship capabilities available from University of Delaware's Ocean Information Center and ARCUS's ALIAS (Arctic Logistics Information and Support) project.

Last reported at 2018-Nov-09 04:39 UTC. Time now 2018-Dec-10 20:04 UTC.
Position N 38°34' E 015°22'.
Warning: this ship's position is 31 days out of date.

Length 85 m; beam 16 m.

Type: Other ship. MMSI: 227222000.

Date/timePositionNaut miles runAvg speedWind from/ knotsBaromVisibWave heightAir tempDewpointWater temp
2018-Nov-09 04:39N 38°34' E 015°22'312.1
2018-Nov-09 04:25N 38°32' E 015°24'411.7
2018-Nov-09 04:02N 38°29' E 015°28'811.5
2018-Nov-09 03:23N 38°24' E 015°35'411.9
2018-Nov-09 03:02N 38°21' E 015°39'8 9.0
2018-Nov-09 02:08N 38°13' E 015°37'311.5
2018-Nov-09 01:54N 38°10' E 015°37'5 9.6
2018-Nov-09 01:25N 38°06' E 015°36'4 9.6
2018-Nov-09 01:01N 38°02' E 015°36'511.5
2018-Nov-09 00:32N 37°57' E 015°37'611.5
2018-Nov-09 00:02N 37°54' E 015°43'611.8
2018-Nov-08 23:30N 37°51' E 015°51'511.7
2018-Nov-08 23:02N 37°49' E 015°57'  

Dump ship's entire track history